sensor_id;sensor_type;location;lat;lon;timestamp;P1;durP1;ratioP1;P2;durP2;ratioP2
18224;SDS011;9237;48.590;8.854;2023-06-01T00:00:49;0.70;;;0.70;;
18224;SDS011;9237;48.590;8.854;2023-06-01T00:03:16;0.70;;;0.70;;
18224;SDS011;9237;48.590;8.854;2023-06-01T00:05:42;0.70;;;0.70;;
18224;SDS011;9237;48.590;8.854;2023-06-01T00:08:09;0.60;;;0.60;;
18224;SDS011;9237;48.590;8.854;2023-06-01T00:10:37;0.70;;;0.70;;
18224;SDS011;9237;48.590;8.854;2023-06-01T00:13:04;0.60;;;0.60;;
18224;SDS011;9237;48.590;8.854;2023-06-01T00:15:31;0.70;;;0.70;;
18224;SDS011;9237;48.590;8.854;2023-06-01T00:17:57;0.70;;;0.70;;
18224;SDS011;9237;48.590;8.854;2023-06-01T00:20:25;0.70;;;0.70;;
18224;SDS011;9237;48.590;8.854;2023-06-01T00:22:53;0.80;;;0.80;;
18224;SDS011;9237;48.590;8.854;2023-06-01T00:25:22;0.63;;;0.63;;
18224;SDS011;9237;48.590;8.854;2023-06-01T00:27:50;0.70;;;0.70;;
18224;SDS011;9237;48.590;8.854;2023-06-01T00:30:17;0.70;;;0.70;;
18224;SDS011;9237;48.590;8.854;2023-06-01T00:32:43;0.70;;;0.70;;
18224;SDS011;9237;48.590;8.854;2023-06-01T00:35:10;0.70;;;0.70;;
18224;SDS011;9237;48.590;8.854;2023-06-01T00:37:37;0.70;;;0.70;;
18224;SDS011;9237;48.590;8.854;2023-06-01T00:40:04;0.70;;;0.70;;
18224;SDS011;9237;48.590;8.854;2023-06-01T00:42:31;0.70;;;0.70;;
18224;SDS011;9237;48.590;8.854;2023-06-01T00:45:00;0.70;;;0.70;;
18224;SDS011;9237;48.590;8.854;2023-06-01T00:47:27;0.70;;;0.70;;
18224;SDS011;9237;48.590;8.854;2023-06-01T00:49:54;0.60;;;0.60;;
18224;SDS011;9237;48.590;8.854;2023-06-01T00:52:21;0.70;;;0.70;;
18224;SDS011;9237;48.590;8.854;2023-06-01T00:54:49;0.70;;;0.70;;
18224;SDS011;9237;48.590;8.854;2023-06-01T00:57:16;0.70;;;0.70;;
18224;SDS011;9237;48.590;8.854;2023-06-01T00:59:45;0.80;;;0.80;;
18224;SDS011;9237;48.590;8.854;2023-06-01T01:02:14;0.80;;;0.80;;
18224;SDS011;9237;48.590;8.854;2023-06-01T01:04:43;0.70;;;0.70;;
18224;SDS011;9237;48.590;8.854;2023-06-01T01:07:13;0.70;;;0.70;;
18224;SDS011;9237;48.590;8.854;2023-06-01T01:09:49;0.70;;;0.70;;
18224;SDS011;9237;48.590;8.854;2023-06-01T01:12:23;0.70;;;0.70;;
18224;SDS011;9237;48.590;8.854;2023-06-01T01:14:59;0.70;;;0.70;;
18224;SDS011;9237;48.590;8.854;2023-06-01T01:17:36;0.70;;;0.70;;
18224;SDS011;9237;48.590;8.854;2023-06-01T01:20:08;0.70;;;0.70;;
18224;SDS011;9237;48.590;8.854;2023-06-01T01:22:46;0.70;;;0.70;;
18224;SDS011;9237;48.590;8.854;2023-06-01T01:25:45;0.60;;;0.60;;
18224;SDS011;9237;48.590;8.854;2023-06-01T01:28:37;0.70;;;0.70;;
18224;SDS011;9237;48.590;8.854;2023-06-01T01:31:08;0.70;;;0.70;;
18224;SDS011;9237;48.590;8.854;2023-06-01T01:33:37;0.60;;;0.60;;
18224;SDS011;9237;48.590;8.854;2023-06-01T01:36:05;0.70;;;0.70;;
18224;SDS011;9237;48.590;8.854;2023-06-01T01:38:34;0.60;;;0.60;;
18224;SDS011;9237;48.590;8.854;2023-06-01T01:41:01;0.60;;;0.60;;
18224;SDS011;9237;48.590;8.854;2023-06-01T01:43:28;0.70;;;0.70;;
18224;SDS011;9237;48.590;8.854;2023-06-01T01:45:59;0.70;;;0.70;;
18224;SDS011;9237;48.590;8.854;2023-06-01T01:48:32;0.70;;;0.70;;
18224;SDS011;9237;48.590;8.854;2023-06-01T01:51:06;0.80;;;0.80;;
18224;SDS011;9237;48.590;8.854;2023-06-01T01:53:36;0.60;;;0.60;;
18224;SDS011;9237;48.590;8.854;2023-06-01T01:56:07;0.70;;;0.70;;
18224;SDS011;9237;48.590;8.854;2023-06-01T01:58:34;0.70;;;0.70;;
18224;SDS011;9237;48.590;8.854;2023-06-01T02:01:03;0.70;;;0.70;;
18224;SDS011;9237;48.590;8.854;2023-06-01T02:03:30;0.70;;;0.70;;
18224;SDS011;9237;48.590;8.854;2023-06-01T02:05:57;0.70;;;0.70;;
18224;SDS011;9237;48.590;8.854;2023-06-01T02:08:24;0.80;;;0.80;;
18224;SDS011;9237;48.590;8.854;2023-06-01T02:10:51;0.70;;;0.70;;
18224;SDS011;9237;48.590;8.854;2023-06-01T02:13:18;0.70;;;0.70;;
18224;SDS011;9237;48.590;8.854;2023-06-01T02:15:44;0.70;;;0.70;;
18224;SDS011;9237;48.590;8.854;2023-06-01T02:18:12;0.67;;;0.67;;
18224;SDS011;9237;48.590;8.854;2023-06-01T02:20:41;0.70;;;0.70;;
18224;SDS011;9237;48.590;8.854;2023-06-01T02:23:07;0.70;;;0.70;;
18224;SDS011;9237;48.590;8.854;2023-06-01T02:25:35;0.60;;;0.60;;
18224;SDS011;9237;48.590;8.854;2023-06-01T02:28:01;0.70;;;0.70;;
18224;SDS011;9237;48.590;8.854;2023-06-01T02:30:28;0.80;;;0.80;;
18224;SDS011;9237;48.590;8.854;2023-06-01T02:32:55;0.70;;;0.70;;
18224;SDS011;9237;48.590;8.854;2023-06-01T02:35:23;0.60;;;0.60;;
18224;SDS011;9237;48.590;8.854;2023-06-01T02:37:50;0.70;;;0.70;;
18224;SDS011;9237;48.590;8.854;2023-06-01T02:40:17;0.70;;;0.70;;
18224;SDS011;9237;48.590;8.854;2023-06-01T02:42:44;0.70;;;0.70;;
18224;SDS011;9237;48.590;8.854;2023-06-01T02:45:10;0.70;;;0.70;;
18224;SDS011;9237;48.590;8.854;2023-06-01T02:47:37;0.70;;;0.70;;
18224;SDS011;9237;48.590;8.854;2023-06-01T02:50:04;0.70;;;0.70;;
18224;SDS011;9237;48.590;8.854;2023-06-01T02:52:33;0.60;;;0.60;;
18224;SDS011;9237;48.590;8.854;2023-06-01T02:55:00;0.70;;;0.70;;
18224;SDS011;9237;48.590;8.854;2023-06-01T02:57:26;0.70;;;0.70;;
18224;SDS011;9237;48.590;8.854;2023-06-01T02:59:53;0.73;;;0.73;;
18224;SDS011;9237;48.590;8.854;2023-06-01T03:02:20;0.80;;;0.80;;
18224;SDS011;9237;48.590;8.854;2023-06-01T03:04:47;0.70;;;0.70;;
18224;SDS011;9237;48.590;8.854;2023-06-01T03:07:14;0.70;;;0.70;;
18224;SDS011;9237;48.590;8.854;2023-06-01T03:09:42;0.70;;;0.70;;
18224;SDS011;9237;48.590;8.854;2023-06-01T03:12:09;0.60;;;0.60;;
18224;SDS011;9237;48.590;8.854;2023-06-01T03:14:36;0.70;;;0.70;;
18224;SDS011;9237;48.590;8.854;2023-06-01T03:17:03;0.60;;;0.60;;
18224;SDS011;9237;48.590;8.854;2023-06-01T03:19:30;0.70;;;0.70;;
18224;SDS011;9237;48.590;8.854;2023-06-01T03:21:57;0.70;;;0.70;;
18224;SDS011;9237;48.590;8.854;2023-06-01T03:24:24;0.70;;;0.70;;
18224;SDS011;9237;48.590;8.854;2023-06-01T03:26:52;0.90;;;0.90;;
18224;SDS011;9237;48.590;8.854;2023-06-01T03:29:19;0.70;;;0.70;;
18224;SDS011;9237;48.590;8.854;2023-06-01T03:31:46;0.70;;;0.70;;
18224;SDS011;9237;48.590;8.854;2023-06-01T03:34:12;0.70;;;0.70;;
18224;SDS011;9237;48.590;8.854;2023-06-01T03:36:39;0.70;;;0.70;;
18224;SDS011;9237;48.590;8.854;2023-06-01T03:39:06;0.70;;;0.70;;
18224;SDS011;9237;48.590;8.854;2023-06-01T03:41:33;0.80;;;0.80;;
18224;SDS011;9237;48.590;8.854;2023-06-01T03:44:01;0.70;;;0.70;;
18224;SDS011;9237;48.590;8.854;2023-06-01T03:46:28;0.70;;;0.70;;
18224;SDS011;9237;48.590;8.854;2023-06-01T03:48:55;0.70;;;0.70;;
18224;SDS011;9237;48.590;8.854;2023-06-01T03:51:22;0.70;;;0.70;;
18224;SDS011;9237;48.590;8.854;2023-06-01T03:53:49;0.70;;;0.70;;
18224;SDS011;9237;48.590;8.854;2023-06-01T03:56:16;0.80;;;0.80;;
18224;SDS011;9237;48.590;8.854;2023-06-01T03:58:44;0.70;;;0.70;;
18224;SDS011;9237;48.590;8.854;2023-06-01T04:01:12;0.80;;;0.80;;
18224;SDS011;9237;48.590;8.854;2023-06-01T04:03:41;0.70;;;0.70;;
18224;SDS011;9237;48.590;8.854;2023-06-01T04:06:08;0.70;;;0.70;;
18224;SDS011;9237;48.590;8.854;2023-06-01T04:08:38;0.73;;;0.73;;
18224;SDS011;9237;48.590;8.854;2023-06-01T04:11:12;0.80;;;0.80;;
18224;SDS011;9237;48.590;8.854;2023-06-01T04:13:39;0.70;;;0.70;;
18224;SDS011;9237;48.590;8.854;2023-06-01T04:16:06;0.70;;;0.70;;
18224;SDS011;9237;48.590;8.854;2023-06-01T04:18:34;0.70;;;0.70;;
18224;SDS011;9237;48.590;8.854;2023-06-01T04:21:01;0.70;;;0.70;;
18224;SDS011;9237;48.590;8.854;2023-06-01T04:23:28;0.70;;;0.70;;
18224;SDS011;9237;48.590;8.854;2023-06-01T04:25:55;0.70;;;0.70;;
18224;SDS011;9237;48.590;8.854;2023-06-01T04:28:24;0.70;;;0.70;;
18224;SDS011;9237;48.590;8.854;2023-06-01T04:30:52;0.70;;;0.70;;
18224;SDS011;9237;48.590;8.854;2023-06-01T04:33:19;0.70;;;0.70;;
18224;SDS011;9237;48.590;8.854;2023-06-01T04:35:48;0.70;;;0.70;;
18224;SDS011;9237;48.590;8.854;2023-06-01T04:38:18;0.70;;;0.70;;
18224;SDS011;9237;48.590;8.854;2023-06-01T04:40:44;0.60;;;0.60;;
18224;SDS011;9237;48.590;8.854;2023-06-01T04:43:11;0.70;;;0.70;;
18224;SDS011;9237;48.590;8.854;2023-06-01T04:45:38;0.70;;;0.70;;
18224;SDS011;9237;48.590;8.854;2023-06-01T04:48:05;0.70;;;0.70;;
18224;SDS011;9237;48.590;8.854;2023-06-01T04:50:33;0.70;;;0.70;;
18224;SDS011;9237;48.590;8.854;2023-06-01T04:53:01;0.70;;;0.70;;
18224;SDS011;9237;48.590;8.854;2023-06-01T04:55:28;0.70;;;0.70;;
18224;SDS011;9237;48.590;8.854;2023-06-01T04:57:55;0.70;;;0.70;;
18224;SDS011;9237;48.590;8.854;2023-06-01T05:00:23;0.70;;;0.70;;
18224;SDS011;9237;48.590;8.854;2023-06-01T05:02:50;0.70;;;0.70;;
18224;SDS011;9237;48.590;8.854;2023-06-01T05:05:16;0.70;;;0.70;;
18224;SDS011;9237;48.590;8.854;2023-06-01T05:07:43;0.60;;;0.60;;
18224;SDS011;9237;48.590;8.854;2023-06-01T05:10:12;0.60;;;0.60;;
18224;SDS011;9237;48.590;8.854;2023-06-01T05:12:39;0.60;;;0.60;;
18224;SDS011;9237;48.590;8.854;2023-06-01T05:15:07;0.70;;;0.70;;
18224;SDS011;9237;48.590;8.854;2023-06-01T05:17:36;0.60;;;0.60;;
18224;SDS011;9237;48.590;8.854;2023-06-01T05:20:03;0.60;;;0.60;;
18224;SDS011;9237;48.590;8.854;2023-06-01T05:22:33;0.60;;;0.60;;
18224;SDS011;9237;48.590;8.854;2023-06-01T05:25:00;0.60;;;0.60;;
18224;SDS011;9237;48.590;8.854;2023-06-01T05:27:29;0.60;;;0.60;;
18224;SDS011;9237;48.590;8.854;2023-06-01T05:29:55;0.60;;;0.60;;
18224;SDS011;9237;48.590;8.854;2023-06-01T05:32:22;0.60;;;0.60;;
18224;SDS011;9237;48.590;8.854;2023-06-01T05:34:49;0.60;;;0.60;;
18224;SDS011;9237;48.590;8.854;2023-06-01T05:37:16;0.60;;;0.60;;
18224;SDS011;9237;48.590;8.854;2023-06-01T05:39:42;0.60;;;0.60;;
18224;SDS011;9237;48.590;8.854;2023-06-01T05:42:09;0.60;;;0.60;;
18224;SDS011;9237;48.590;8.854;2023-06-01T05:44:37;0.60;;;0.60;;
18224;SDS011;9237;48.590;8.854;2023-06-01T05:47:04;0.50;;;0.50;;
18224;SDS011;9237;48.590;8.854;2023-06-01T05:49:31;0.60;;;0.60;;
18224;SDS011;9237;48.590;8.854;2023-06-01T05:51:58;0.60;;;0.60;;
18224;SDS011;9237;48.590;8.854;2023-06-01T05:54:25;0.60;;;0.60;;
18224;SDS011;9237;48.590;8.854;2023-06-01T05:56:52;0.60;;;0.60;;
18224;SDS011;9237;48.590;8.854;2023-06-01T05:59:19;0.60;;;0.60;;
18224;SDS011;9237;48.590;8.854;2023-06-01T06:01:47;0.50;;;0.50;;
18224;SDS011;9237;48.590;8.854;2023-06-01T06:04:14;0.50;;;0.50;;
18224;SDS011;9237;48.590;8.854;2023-06-01T06:06:41;0.50;;;0.50;;
18224;SDS011;9237;48.590;8.854;2023-06-01T06:09:07;0.50;;;0.50;;
18224;SDS011;9237;48.590;8.854;2023-06-01T06:11:35;0.50;;;0.50;;
18224;SDS011;9237;48.590;8.854;2023-06-01T06:14:03;0.60;;;0.60;;
18224;SDS011;9237;48.590;8.854;2023-06-01T06:16:30;0.53;;;0.53;;
18224;SDS011;9237;48.590;8.854;2023-06-01T06:18:58;0.50;;;0.50;;
18224;SDS011;9237;48.590;8.854;2023-06-01T06:21:25;0.50;;;0.50;;
18224;SDS011;9237;48.590;8.854;2023-06-01T06:23:51;0.50;;;0.50;;
18224;SDS011;9237;48.590;8.854;2023-06-01T06:26:23;0.50;;;0.50;;
18224;SDS011;9237;48.590;8.854;2023-06-01T06:28:51;0.60;;;0.60;;
18224;SDS011;9237;48.590;8.854;2023-06-01T06:31:17;0.50;;;0.50;;
18224;SDS011;9237;48.590;8.854;2023-06-01T06:33:45;0.50;;;0.50;;
18224;SDS011;9237;48.590;8.854;2023-06-01T06:36:13;0.50;;;0.50;;
18224;SDS011;9237;48.590;8.854;2023-06-01T06:38:39;0.50;;;0.50;;
18224;SDS011;9237;48.590;8.854;2023-06-01T06:41:06;0.50;;;0.50;;
18224;SDS011;9237;48.590;8.854;2023-06-01T06:43:33;0.50;;;0.50;;
18224;SDS011;9237;48.590;8.854;2023-06-01T06:46:00;0.50;;;0.50;;
18224;SDS011;9237;48.590;8.854;2023-06-01T06:48:27;0.50;;;0.50;;
18224;SDS011;9237;48.590;8.854;2023-06-01T06:50:53;0.50;;;0.50;;
18224;SDS011;9237;48.590;8.854;2023-06-01T06:53:22;0.40;;;0.40;;
18224;SDS011;9237;48.590;8.854;2023-06-01T06:55:49;0.50;;;0.50;;
18224;SDS011;9237;48.590;8.854;2023-06-01T06:58:15;0.50;;;0.50;;
18224;SDS011;9237;48.590;8.854;2023-06-01T07:00:42;0.50;;;0.50;;
18224;SDS011;9237;48.590;8.854;2023-06-01T07:03:09;0.43;;;0.43;;
18224;SDS011;9237;48.590;8.854;2023-06-01T07:05:36;0.50;;;0.50;;
18224;SDS011;9237;48.590;8.854;2023-06-01T07:08:03;0.40;;;0.40;;
18224;SDS011;9237;48.590;8.854;2023-06-01T07:10:31;0.50;;;0.50;;
18224;SDS011;9237;48.590;8.854;2023-06-01T07:12:58;0.50;;;0.50;;
18224;SDS011;9237;48.590;8.854;2023-06-01T07:15:25;0.47;;;0.47;;
18224;SDS011;9237;48.590;8.854;2023-06-01T07:17:51;0.47;;;0.47;;
18224;SDS011;9237;48.590;8.854;2023-06-01T07:20:18;0.45;;;0.45;;
18224;SDS011;9237;48.590;8.854;2023-06-01T07:22:45;0.40;;;0.40;;
18224;SDS011;9237;48.590;8.854;2023-06-01T07:25:12;0.40;;;0.40;;
18224;SDS011;9237;48.590;8.854;2023-06-01T07:27:40;0.40;;;0.40;;
18224;SDS011;9237;48.590;8.854;2023-06-01T07:30:08;0.40;;;0.40;;
18224;SDS011;9237;48.590;8.854;2023-06-01T07:32:37;0.40;;;0.40;;
18224;SDS011;9237;48.590;8.854;2023-06-01T07:35:04;0.40;;;0.40;;
18224;SDS011;9237;48.590;8.854;2023-06-01T07:37:32;0.40;;;0.40;;
18224;SDS011;9237;48.590;8.854;2023-06-01T07:39:59;0.40;;;0.40;;
18224;SDS011;9237;48.590;8.854;2023-06-01T07:42:26;0.40;;;0.40;;
18224;SDS011;9237;48.590;8.854;2023-06-01T07:44:54;0.40;;;0.40;;
18224;SDS011;9237;48.590;8.854;2023-06-01T07:47:21;0.40;;;0.40;;
18224;SDS011;9237;48.590;8.854;2023-06-01T07:49:50;0.40;;;0.40;;
18224;SDS011;9237;48.590;8.854;2023-06-01T07:52:17;0.40;;;0.40;;
18224;SDS011;9237;48.590;8.854;2023-06-01T07:54:43;0.35;;;0.35;;
18224;SDS011;9237;48.590;8.854;2023-06-01T07:57:10;0.40;;;0.40;;
18224;SDS011;9237;48.590;8.854;2023-06-01T07:59:37;0.40;;;0.40;;
18224;SDS011;9237;48.590;8.854;2023-06-01T08:02:06;0.32;;;0.32;;
18224;SDS011;9237;48.590;8.854;2023-06-01T08:04:32;0.30;;;0.30;;
18224;SDS011;9237;48.590;8.854;2023-06-01T08:07:00;0.40;;;0.40;;
18224;SDS011;9237;48.590;8.854;2023-06-01T08:09:29;0.40;;;0.40;;
18224;SDS011;9237;48.590;8.854;2023-06-01T08:11:56;0.40;;;0.40;;
18224;SDS011;9237;48.590;8.854;2023-06-01T08:14:23;0.38;;;0.38;;
18224;SDS011;9237;48.590;8.854;2023-06-01T08:16:49;0.30;;;0.30;;
18224;SDS011;9237;48.590;8.854;2023-06-01T08:19:18;0.40;;;0.40;;
18224;SDS011;9237;48.590;8.854;2023-06-01T08:21:45;0.40;;;0.40;;
18224;SDS011;9237;48.590;8.854;2023-06-01T08:24:12;0.30;;;0.30;;
18224;SDS011;9237;48.590;8.854;2023-06-01T08:26:40;0.30;;;0.30;;
18224;SDS011;9237;48.590;8.854;2023-06-01T08:29:07;0.30;;;0.30;;
18224;SDS011;9237;48.590;8.854;2023-06-01T08:31:34;0.30;;;0.30;;
18224;SDS011;9237;48.590;8.854;2023-06-01T08:34:02;0.30;;;0.30;;
18224;SDS011;9237;48.590;8.854;2023-06-01T08:36:30;0.30;;;0.30;;
18224;SDS011;9237;48.590;8.854;2023-06-01T08:38:57;0.30;;;0.30;;
18224;SDS011;9237;48.590;8.854;2023-06-01T08:41:24;0.30;;;0.30;;
18224;SDS011;9237;48.590;8.854;2023-06-01T08:43:58;0.30;;;0.30;;
18224;SDS011;9237;48.590;8.854;2023-06-01T08:46:28;0.30;;;0.30;;
18224;SDS011;9237;48.590;8.854;2023-06-01T08:48:58;0.30;;;0.30;;
18224;SDS011;9237;48.590;8.854;2023-06-01T08:51:25;0.22;;;0.22;;
18224;SDS011;9237;48.590;8.854;2023-06-01T08:53:56;0.30;;;0.30;;
18224;SDS011;9237;48.590;8.854;2023-06-01T08:56:26;0.25;;;0.25;;
18224;SDS011;9237;48.590;8.854;2023-06-01T08:58:54;0.20;;;0.20;;
18224;SDS011;9237;48.590;8.854;2023-06-01T09:01:22;0.20;;;0.20;;
18224;SDS011;9237;48.590;8.854;2023-06-01T09:03:50;0.20;;;0.20;;
18224;SDS011;9237;48.590;8.854;2023-06-01T09:06:17;0.30;;;0.30;;
18224;SDS011;9237;48.590;8.854;2023-06-01T09:08:45;0.20;;;0.20;;
18224;SDS011;9237;48.590;8.854;2023-06-01T09:11:13;0.20;;;0.20;;
18224;SDS011;9237;48.590;8.854;2023-06-01T09:13:40;0.20;;;0.20;;
18224;SDS011;9237;48.590;8.854;2023-06-01T09:16:07;0.30;;;0.30;;
18224;SDS011;9237;48.590;8.854;2023-06-01T09:18:35;0.20;;;0.20;;
18224;SDS011;9237;48.590;8.854;2023-06-01T09:21:11;0.30;;;0.30;;
18224;SDS011;9237;48.590;8.854;2023-06-01T09:23:40;0.30;;;0.30;;
18224;SDS011;9237;48.590;8.854;2023-06-01T09:26:08;0.20;;;0.20;;
18224;SDS011;9237;48.590;8.854;2023-06-01T09:28:58;0.20;;;0.20;;
18224;SDS011;9237;48.590;8.854;2023-06-01T09:31:35;0.30;;;0.30;;
18224;SDS011;9237;48.590;8.854;2023-06-01T09:34:03;0.30;;;0.30;;
18224;SDS011;9237;48.590;8.854;2023-06-01T09:36:30;0.30;;;0.30;;
18224;SDS011;9237;48.590;8.854;2023-06-01T09:39:00;0.30;;;0.30;;
18224;SDS011;9237;48.590;8.854;2023-06-01T09:41:32;0.30;;;0.30;;
18224;SDS011;9237;48.590;8.854;2023-06-01T09:44:12;0.20;;;0.20;;
18224;SDS011;9237;48.590;8.854;2023-06-01T09:46:46;0.30;;;0.30;;
18224;SDS011;9237;48.590;8.854;2023-06-01T09:49:17;0.20;;;0.20;;
18224;SDS011;9237;48.590;8.854;2023-06-01T09:51:46;0.30;;;0.30;;
18224;SDS011;9237;48.590;8.854;2023-06-01T09:54:21;0.30;;;0.30;;
18224;SDS011;9237;48.590;8.854;2023-06-01T09:56:48;0.30;;;0.30;;
18224;SDS011;9237;48.590;8.854;2023-06-01T09:59:16;0.20;;;0.20;;
18224;SDS011;9237;48.590;8.854;2023-06-01T10:01:43;0.30;;;0.30;;
18224;SDS011;9237;48.590;8.854;2023-06-01T10:04:15;0.28;;;0.28;;
18224;SDS011;9237;48.590;8.854;2023-06-01T10:06:46;0.30;;;0.30;;
18224;SDS011;9237;48.590;8.854;2023-06-01T10:09:13;0.30;;;0.30;;
18224;SDS011;9237;48.590;8.854;2023-06-01T10:11:44;0.20;;;0.20;;
18224;SDS011;9237;48.590;8.854;2023-06-01T10:14:11;0.20;;;0.20;;
18224;SDS011;9237;48.590;8.854;2023-06-01T10:16:40;0.20;;;0.20;;
18224;SDS011;9237;48.590;8.854;2023-06-01T10:19:07;0.25;;;0.25;;
18224;SDS011;9237;48.590;8.854;2023-06-01T10:21:35;0.20;;;0.20;;
18224;SDS011;9237;48.590;8.854;2023-06-01T10:24:02;0.30;;;0.30;;
18224;SDS011;9237;48.590;8.854;2023-06-01T10:26:30;0.20;;;0.20;;
18224;SDS011;9237;48.590;8.854;2023-06-01T10:29:02;0.20;;;0.20;;
18224;SDS011;9237;48.590;8.854;2023-06-01T10:31:33;0.20;;;0.20;;
18224;SDS011;9237;48.590;8.854;2023-06-01T10:34:05;0.30;;;0.30;;
18224;SDS011;9237;48.590;8.854;2023-06-01T10:39:37;0.20;;;0.20;;
18224;SDS011;9237;48.590;8.854;2023-06-01T10:45:04;0.22;;;0.22;;
18224;SDS011;9237;48.590;8.854;2023-06-01T10:47:54;0.20;;;0.20;;
18224;SDS011;9237;48.590;8.854;2023-06-01T10:50:23;0.20;;;0.20;;
18224;SDS011;9237;48.590;8.854;2023-06-01T10:52:50;0.20;;;0.20;;
18224;SDS011;9237;48.590;8.854;2023-06-01T10:55:21;0.30;;;0.30;;
18224;SDS011;9237;48.590;8.854;2023-06-01T10:57:49;0.20;;;0.20;;
18224;SDS011;9237;48.590;8.854;2023-06-01T11:00:17;0.22;;;0.22;;
18224;SDS011;9237;48.590;8.854;2023-06-01T11:02:51;0.20;;;0.20;;
18224;SDS011;9237;48.590;8.854;2023-06-01T11:11:16;0.20;;;0.20;;
18224;SDS011;9237;48.590;8.854;2023-06-01T11:13:45;0.20;;;0.20;;
18224;SDS011;9237;48.590;8.854;2023-06-01T11:16:36;0.20;;;0.20;;
18224;SDS011;9237;48.590;8.854;2023-06-01T11:19:03;0.20;;;0.20;;
18224;SDS011;9237;48.590;8.854;2023-06-01T11:21:33;0.20;;;0.20;;
18224;SDS011;9237;48.590;8.854;2023-06-01T11:24:06;0.20;;;0.20;;
18224;SDS011;9237;48.590;8.854;2023-06-01T11:26:36;0.20;;;0.20;;
18224;SDS011;9237;48.590;8.854;2023-06-01T11:29:06;0.20;;;0.20;;
18224;SDS011;9237;48.590;8.854;2023-06-01T11:31:36;0.20;;;0.20;;
18224;SDS011;9237;48.590;8.854;2023-06-01T11:34:05;0.20;;;0.20;;
18224;SDS011;9237;48.590;8.854;2023-06-01T11:36:38;0.20;;;0.20;;
18224;SDS011;9237;48.590;8.854;2023-06-01T11:39:15;0.20;;;0.20;;
18224;SDS011;9237;48.590;8.854;2023-06-01T11:41:45;0.22;;;0.22;;
18224;SDS011;9237;48.590;8.854;2023-06-01T11:44:12;0.20;;;0.20;;
18224;SDS011;9237;48.590;8.854;2023-06-01T11:46:49;0.20;;;0.20;;
18224;SDS011;9237;48.590;8.854;2023-06-01T11:49:16;0.20;;;0.20;;
18224;SDS011;9237;48.590;8.854;2023-06-01T11:51:44;0.20;;;0.20;;
18224;SDS011;9237;48.590;8.854;2023-06-01T11:54:11;0.20;;;0.20;;
18224;SDS011;9237;48.590;8.854;2023-06-01T11:56:38;0.20;;;0.20;;
18224;SDS011;9237;48.590;8.854;2023-06-01T11:59:06;0.20;;;0.20;;
18224;SDS011;9237;48.590;8.854;2023-06-01T12:01:35;0.20;;;0.20;;
18224;SDS011;9237;48.590;8.854;2023-06-01T12:04:04;0.20;;;0.20;;
18224;SDS011;9237;48.590;8.854;2023-06-01T12:06:32;0.20;;;0.20;;
18224;SDS011;9237;48.590;8.854;2023-06-01T12:09:02;0.20;;;0.20;;
18224;SDS011;9237;48.590;8.854;2023-06-01T12:11:31;0.20;;;0.20;;
18224;SDS011;9237;48.590;8.854;2023-06-01T12:13:59;0.20;;;0.20;;
18224;SDS011;9237;48.590;8.854;2023-06-01T12:19:17;0.20;;;0.20;;
18224;SDS011;9237;48.590;8.854;2023-06-01T12:21:46;0.20;;;0.20;;
18224;SDS011;9237;48.590;8.854;2023-06-01T12:24:15;0.20;;;0.20;;
18224;SDS011;9237;48.590;8.854;2023-06-01T12:26:42;0.30;;;0.30;;
18224;SDS011;9237;48.590;8.854;2023-06-01T12:29:09;0.20;;;0.20;;
18224;SDS011;9237;48.590;8.854;2023-06-01T12:31:37;0.20;;;0.20;;
18224;SDS011;9237;48.590;8.854;2023-06-01T12:34:03;0.20;;;0.20;;
18224;SDS011;9237;48.590;8.854;2023-06-01T12:36:41;0.20;;;0.20;;
18224;SDS011;9237;48.590;8.854;2023-06-01T12:39:08;0.30;;;0.30;;
18224;SDS011;9237;48.590;8.854;2023-06-01T12:41:37;0.20;;;0.20;;
18224;SDS011;9237;48.590;8.854;2023-06-01T12:44:17;0.20;;;0.20;;
18224;SDS011;9237;48.590;8.854;2023-06-01T12:46:45;0.30;;;0.30;;
18224;SDS011;9237;48.590;8.854;2023-06-01T12:49:12;0.30;;;0.30;;
18224;SDS011;9237;48.590;8.854;2023-06-01T12:51:41;0.30;;;0.30;;
18224;SDS011;9237;48.590;8.854;2023-06-01T12:54:08;0.20;;;0.20;;
18224;SDS011;9237;48.590;8.854;2023-06-01T12:56:34;0.20;;;0.20;;
18224;SDS011;9237;48.590;8.854;2023-06-01T12:59:03;0.20;;;0.20;;
18224;SDS011;9237;48.590;8.854;2023-06-01T13:01:31;0.20;;;0.20;;
18224;SDS011;9237;48.590;8.854;2023-06-01T13:03:57;0.30;;;0.30;;
18224;SDS011;9237;48.590;8.854;2023-06-01T13:06:25;0.30;;;0.30;;
18224;SDS011;9237;48.590;8.854;2023-06-01T13:08:52;0.20;;;0.20;;
18224;SDS011;9237;48.590;8.854;2023-06-01T13:11:19;0.20;;;0.20;;
18224;SDS011;9237;48.590;8.854;2023-06-01T13:13:49;0.20;;;0.20;;
18224;SDS011;9237;48.590;8.854;2023-06-01T13:16:16;0.30;;;0.30;;
18224;SDS011;9237;48.590;8.854;2023-06-01T13:18:43;0.20;;;0.20;;
18224;SDS011;9237;48.590;8.854;2023-06-01T13:21:10;0.20;;;0.20;;
18224;SDS011;9237;48.590;8.854;2023-06-01T13:23:37;0.20;;;0.20;;
18224;SDS011;9237;48.590;8.854;2023-06-01T13:26:04;0.30;;;0.30;;
18224;SDS011;9237;48.590;8.854;2023-06-01T13:28:33;0.28;;;0.28;;
18224;SDS011;9237;48.590;8.854;2023-06-01T13:31:01;0.22;;;0.22;;
18224;SDS011;9237;48.590;8.854;2023-06-01T13:33:28;0.20;;;0.20;;
18224;SDS011;9237;48.590;8.854;2023-06-01T13:35:57;0.20;;;0.20;;
18224;SDS011;9237;48.590;8.854;2023-06-01T13:38:24;0.20;;;0.20;;
18224;SDS011;9237;48.590;8.854;2023-06-01T13:40:51;0.20;;;0.20;;
18224;SDS011;9237;48.590;8.854;2023-06-01T13:43:18;0.20;;;0.20;;
18224;SDS011;9237;48.590;8.854;2023-06-01T13:45:45;0.20;;;0.20;;
18224;SDS011;9237;48.590;8.854;2023-06-01T13:48:13;0.20;;;0.20;;
18224;SDS011;9237;48.590;8.854;2023-06-01T13:50:39;0.20;;;0.20;;
18224;SDS011;9237;48.590;8.854;2023-06-01T13:53:06;0.25;;;0.25;;
18224;SDS011;9237;48.590;8.854;2023-06-01T13:55:33;0.20;;;0.20;;
18224;SDS011;9237;48.590;8.854;2023-06-01T13:58:01;0.20;;;0.20;;
18224;SDS011;9237;48.590;8.854;2023-06-01T14:00:28;0.20;;;0.20;;
18224;SDS011;9237;48.590;8.854;2023-06-01T14:02:55;0.20;;;0.20;;
18224;SDS011;9237;48.590;8.854;2023-06-01T14:05:23;0.20;;;0.20;;
18224;SDS011;9237;48.590;8.854;2023-06-01T14:07:50;0.20;;;0.20;;
18224;SDS011;9237;48.590;8.854;2023-06-01T14:10:16;0.20;;;0.20;;
18224;SDS011;9237;48.590;8.854;2023-06-01T14:12:43;0.20;;;0.20;;
18224;SDS011;9237;48.590;8.854;2023-06-01T14:15:10;0.20;;;0.20;;
18224;SDS011;9237;48.590;8.854;2023-06-01T14:17:37;0.20;;;0.20;;
18224;SDS011;9237;48.590;8.854;2023-06-01T14:20:04;0.20;;;0.20;;
18224;SDS011;9237;48.590;8.854;2023-06-01T14:22:33;0.20;;;0.20;;
18224;SDS011;9237;48.590;8.854;2023-06-01T14:24:59;0.20;;;0.20;;
18224;SDS011;9237;48.590;8.854;2023-06-01T14:27:26;0.20;;;0.20;;
18224;SDS011;9237;48.590;8.854;2023-06-01T14:29:53;0.20;;;0.20;;
18224;SDS011;9237;48.590;8.854;2023-06-01T14:32:19;0.20;;;0.20;;
18224;SDS011;9237;48.590;8.854;2023-06-01T14:34:46;0.20;;;0.20;;
18224;SDS011;9237;48.590;8.854;2023-06-01T14:37:13;0.20;;;0.20;;
18224;SDS011;9237;48.590;8.854;2023-06-01T14:39:41;0.30;;;0.30;;
18224;SDS011;9237;48.590;8.854;2023-06-01T14:42:08;0.30;;;0.30;;
18224;SDS011;9237;48.590;8.854;2023-06-01T14:44:35;0.30;;;0.30;;
18224;SDS011;9237;48.590;8.854;2023-06-01T14:47:01;0.30;;;0.30;;
18224;SDS011;9237;48.590;8.854;2023-06-01T14:49:28;0.30;;;0.30;;
18224;SDS011;9237;48.590;8.854;2023-06-01T14:51:55;0.30;;;0.30;;
18224;SDS011;9237;48.590;8.854;2023-06-01T14:54:22;0.20;;;0.20;;
18224;SDS011;9237;48.590;8.854;2023-06-01T14:56:50;0.30;;;0.30;;
18224;SDS011;9237;48.590;8.854;2023-06-01T14:59:16;0.30;;;0.30;;
18224;SDS011;9237;48.590;8.854;2023-06-01T15:01:43;0.30;;;0.30;;
18224;SDS011;9237;48.590;8.854;2023-06-01T15:04:10;0.20;;;0.20;;
18224;SDS011;9237;48.590;8.854;2023-06-01T15:06:37;0.20;;;0.20;;
18224;SDS011;9237;48.590;8.854;2023-06-01T15:09:04;0.20;;;0.20;;
18224;SDS011;9237;48.590;8.854;2023-06-01T15:11:31;0.20;;;0.20;;
18224;SDS011;9237;48.590;8.854;2023-06-01T15:13:59;0.30;;;0.30;;
18224;SDS011;9237;48.590;8.854;2023-06-01T15:16:26;0.30;;;0.30;;
18224;SDS011;9237;48.590;8.854;2023-06-01T15:18:53;0.30;;;0.30;;
18224;SDS011;9237;48.590;8.854;2023-06-01T15:21:20;0.30;;;0.30;;